Time;durP1;ratioP1;P1;durP2;ratioP2;P2;SDS_P1;SDS_P2;PMS_P1;PMS_P2;Temp;Humidity;BMP_temperature;BMP_pressure;BME280_temperature;BME280_humidity;BME280_pressure;Samples;Min_cycle;Max_cycle;Signal;HPM_P1;HPM_P2
2023/01/25 00:01:43;;;;;;;36.70;13.20;;;;;;;-144.47;100.00;53163.97;5029673;28;20364;-65
2023/01/25 00:04:09;;;;;;;44.35;14.00;;;;;;;-144.47;100.00;53128.22;5029607;28;20033;-63
2023/01/25 00:06:34;;;;;;;31.88;13.50;;;;;;;-144.47;100.00;53167.94;5029862;28;20025;-66
2023/01/25 00:09:00;;;;;;;37.47;14.55;;;;;;;-144.47;100.00;53152.03;5029411;28;20436;-65
2023/01/25 00:11:25;;;;;;;36.15;15.02;;;;;;;-144.47;100.00;53169.91;5029354;28;20180;-66
2023/01/25 00:13:54;;;;;;;42.00;14.20;;;;;;;-144.47;100.00;53154.03;5029213;28;20541;-65
2023/01/25 00:16:21;;;;;;;42.85;14.82;;;;;;;-144.47;100.00;53144.09;5028316;28;20035;-65
2023/01/25 00:18:47;;;;;;;34.65;14.40;;;;;;;-144.47;100.00;53171.91;5036165;28;20633;-66
2023/01/25 00:21:17;;;;;;;41.45;14.70;;;;;;;-144.47;100.00;53154.03;5037435;28;20116;-65
2023/01/25 00:23:43;;;;;;;31.00;13.20;;;;;;;-144.47;100.00;53128.22;5028078;28;20057;-66
2023/01/25 00:26:08;;;;;;;48.50;17.40;;;;;;;-144.47;100.00;53142.09;5029341;28;20049;-65
2023/01/25 00:28:34;;;;;;;42.40;14.93;;;;;;;-144.47;100.00;53140.13;5028778;28;20056;-64
2023/01/25 00:31:04;;;;;;;41.42;15.35;;;;;;;-144.47;100.00;53124.22;5029499;28;20499;-64
2023/01/25 00:33:42;;;;;;;41.50;15.77;;;;;;;-144.47;100.00;53154.03;5029031;28;20036;-63
2023/01/25 00:36:37;;;;;;;45.78;16.92;;;;;;;-144.47;100.00;53112.31;5029624;28;20410;-66
2023/01/25 00:39:04;;;;;;;37.95;14.05;;;;;;;-144.47;100.00;53138.13;5029151;28;20017;-61
2023/01/25 00:41:30;;;;;;;38.35;14.88;;;;;;;-144.47;100.00;53142.09;5029299;28;20047;-65
2023/01/25 00:43:56;;;;;;;37.70;14.68;;;;;;;-144.47;100.00;53158.00;5029122;28;20395;-64
2023/01/25 00:46:21;;;;;;;43.28;15.85;;;;;;;-144.47;100.00;53156.00;5028545;28;20044;-66
2023/01/25 00:48:47;;;;;;;34.03;14.75;;;;;;;-144.47;100.00;53165.94;5027024;28;20029;-65
2023/01/25 00:51:12;;;;;;;37.95;15.25;;;;;;;-144.47;100.00;53154.03;5029382;28;20018;-62
2023/01/25 00:53:38;;;;;;;42.88;17.20;;;;;;;-144.47;100.00;53154.03;5028558;28;20484;-65
2023/01/25 00:56:03;;;;;;;35.22;14.48;;;;;;;-144.47;100.00;53154.03;5028434;28;20140;-65
2023/01/25 00:58:29;;;;;;;42.28;14.10;;;;;;;-144.47;100.00;53163.97;5027942;28;20021;-67
2023/01/25 01:00:55;;;;;;;38.95;16.45;;;;;;;-144.47;100.00;53136.16;5028277;28;20087;-61
2023/01/25 01:03:21;;;;;;;32.05;15.77;;;;;;;-144.47;100.00;53146.09;5029063;28;20037;-66
2023/01/25 01:05:46;;;;;;;40.30;14.25;;;;;;;-144.47;100.00;53160.00;5028996;28;20103;-66
2023/01/25 01:08:13;;;;;;;38.33;15.68;;;;;;;-144.47;100.00;53171.91;5034914;28;20028;-64
2023/01/25 01:10:39;;;;;;;40.42;15.40;;;;;;;-144.47;100.00;53154.03;5029533;28;20040;-65
2023/01/25 01:13:05;;;;;;;38.92;14.55;;;;;;;-144.47;100.00;53128.22;5028808;28;20447;-61
2023/01/25 01:15:30;;;;;;;41.65;14.38;;;;;;;-144.47;100.00;53150.06;5028991;28;20040;-65
2023/01/25 01:17:56;;;;;;;42.65;14.95;;;;;;;-144.47;100.00;53140.13;5029490;28;20030;-65
2023/01/25 01:20:21;;;;;;;36.67;13.68;;;;;;;-144.47;100.00;53160.00;5039741;28;20051;-65
2023/01/25 01:22:47;;;;;;;38.47;13.90;;;;;;;-144.47;100.00;53158.00;5035344;28;20025;-66
2023/01/25 01:25:12;;;;;;;37.17;13.82;;;;;;;-144.47;100.00;53167.94;5032039;28;20029;-63
2023/01/25 01:27:38;;;;;;;43.83;14.55;;;;;;;-144.47;100.00;53161.97;5030872;28;20113;-65
2023/01/25 01:30:04;;;;;;;39.50;14.02;;;;;;;-144.47;100.00;53171.91;5033130;28;20045;-63
2023/01/25 01:32:29;;;;;;;39.85;13.98;;;;;;;-144.47;100.00;53130.19;5032703;28;20029;-66
2023/01/25 01:34:55;;;;;;;50.53;16.00;;;;;;;-144.47;100.00;53118.28;5031023;28;20080;-66
2023/01/25 01:37:20;;;;;;;34.08;13.75;;;;;;;-144.47;100.00;53134.16;5031822;28;20053;-67
2023/01/25 01:39:46;;;;;;;43.97;13.95;;;;;;;-144.47;100.00;53118.28;5032649;28;20021;-65
2023/01/25 01:42:11;;;;;;;37.83;14.38;;;;;;;-144.47;100.00;53156.00;5032156;28;20059;-62
2023/01/25 01:44:48;;;;;;;36.72;14.18;;;;;;;-144.47;100.00;53120.25;5032514;28;20061;-65
2023/01/25 01:47:27;;;;;;;34.25;13.40;;;;;;;-144.47;100.00;53146.09;5032194;28;20049;-66
2023/01/25 01:49:59;;;;;;;30.23;12.40;;;;;;;-144.47;100.00;53130.19;5031687;28;20391;-66
2023/01/25 01:52:29;;;;;;;34.42;12.43;;;;;;;-144.47;100.00;53148.06;5029359;28;20064;-66
2023/01/25 01:55:00;;;;;;;33.97;13.88;;;;;;;-144.47;100.00;53140.13;5031922;28;20567;-68
2023/01/25 01:57:47;;;;;;;34.58;13.90;;;;;;;-144.47;100.00;53122.25;5030866;28;20024;-61
2023/01/25 02:00:27;;;;;;;35.50;12.88;;;;;;;-144.47;100.00;53134.16;5031570;28;20029;-66
2023/01/25 02:02:53;;;;;;;41.03;13.75;;;;;;;-144.47;100.00;53126.22;5031047;28;20026;-64
2023/01/25 02:05:31;;;;;;;41.55;14.80;;;;;;;-144.47;100.00;53156.00;5030829;28;20519;-66
2023/01/25 02:07:57;;;;;;;29.27;12.70;;;;;;;-144.47;100.00;53152.03;5036931;28;20449;-66
2023/01/25 02:10:25;;;;;;;33.20;13.90;;;;;;;-144.47;100.00;53116.28;5030864;28;20022;-64
2023/01/25 02:12:53;;;;;;;31.63;12.45;;;;;;;-144.47;100.00;53124.22;5031140;28;20040;-66
2023/01/25 02:15:18;;;;;;;34.08;11.85;;;;;;;-144.47;100.00;53154.03;5030522;28;20459;-65
2023/01/25 02:17:44;;;;;;;41.72;13.52;;;;;;;-144.47;100.00;53142.09;5030104;28;20034;-62
2023/01/25 02:20:36;;;;;;;37.95;13.75;;;;;;;-144.47;100.00;53136.16;5039939;28;20105;-65
2023/01/25 02:23:18;;;;;;;36.33;14.00;;;;;;;-144.47;100.00;53126.22;5031216;28;20033;-66
2023/01/25 02:25:43;;;;;;;30.05;12.20;;;;;;;-144.47;99.45;53158.00;5031554;28;20025;-64
2023/01/25 02:28:14;;;;;;;28.98;12.40;;;;;;;-144.47;99.95;53142.09;5031031;28;20495;-63
2023/01/25 02:30:41;;;;;;;37.67;13.68;;;;;;;-144.47;100.00;53144.09;5031331;28;20037;-64
2023/01/25 02:33:07;;;;;;;33.15;13.18;;;;;;;-144.47;100.00;53130.19;5028561;28;20068;-67
2023/01/25 02:35:45;;;;;;;35.10;13.43;;;;;;;-144.47;100.00;53124.22;5031380;28;20060;-66
2023/01/25 02:38:16;;;;;;;36.92;12.98;;;;;;;-144.47;100.00;53142.09;5031482;28;20033;-67
2023/01/25 02:41:06;;;;;;;32.85;12.50;;;;;;;-144.47;100.00;53136.16;5031360;28;20461;-64
2023/01/25 02:43:33;;;;;;;33.22;12.63;;;;;;;-144.47;100.00;53114.31;5030375;28;20434;-66
2023/01/25 02:46:26;;;;;;;30.77;12.73;;;;;;;-144.47;100.00;53134.16;5030445;28;20029;-66
2023/01/25 02:48:51;;;;;;;33.03;13.32;;;;;;;-144.47;100.00;53138.13;5030852;28;20774;-67
2023/01/25 02:51:17;;;;;;;42.00;14.55;;;;;;;-144.47;100.00;53169.91;5030458;28;20029;-67
2023/01/25 02:53:42;;;;;;;32.92;14.30;;;;;;;-144.47;100.00;53130.19;5030226;28;20095;-66
2023/01/25 02:56:07;;;;;;;37.58;15.05;;;;;;;-144.47;100.00;53136.16;5029856;28;20056;-63
2023/01/25 02:58:33;;;;;;;29.98;12.45;;;;;;;-144.47;100.00;53126.22;5030537;28;20045;-66
2023/01/25 03:00:58;;;;;;;35.58;14.00;;;;;;;-144.47;100.00;53128.22;5030928;28;20041;-63
2023/01/25 03:03:24;;;;;;;37.45;13.18;;;;;;;-144.47;100.00;53148.06;5030622;28;20470;-66
2023/01/25 03:05:49;;;;;;;36.20;13.45;;;;;;;-144.47;100.00;53130.19;5030248;28;20072;-64
2023/01/25 03:08:14;;;;;;;40.13;14.90;;;;;;;-144.47;100.00;53150.06;5033590;28;20108;-65
2023/01/25 03:10:40;;;;;;;38.08;14.43;;;;;;;-144.47;100.00;53146.09;5028931;28;20029;-63
2023/01/25 03:13:05;;;;;;;32.83;12.25;;;;;;;-144.47;100.00;53126.22;5029873;28;20092;-66
2023/01/25 03:15:31;;;;;;;40.72;15.18;;;;;;;-144.47;100.00;53120.25;5030533;28;20066;-67
2023/01/25 03:17:56;;;;;;;35.47;13.73;;;;;;;-144.47;100.00;53146.09;5030389;28;20039;-66
2023/01/25 03:20:22;;;;;;;39.35;14.20;;;;;;;-144.47;100.00;53142.09;5031093;28;20041;-67
2023/01/25 03:22:47;;;;;;;38.22;14.57;;;;;;;-144.47;100.00;53150.06;5030098;28;20029;-63
2023/01/25 03:25:13;;;;;;;39.80;14.38;;;;;;;-144.47;99.93;53142.09;5030604;28;20017;-66
2023/01/25 03:27:38;;;;;;;29.42;12.15;;;;;;;-144.47;100.00;53171.91;5028750;28;20114;-66
2023/01/25 03:30:04;;;;;;;36.85;12.20;;;;;;;-144.47;99.94;53114.31;5029007;28;20030;-66
2023/01/25 03:32:30;;;;;;;35.17;13.85;;;;;;;-144.47;100.00;53150.06;5030877;28;20045;-64
2023/01/25 03:34:55;;;;;;;38.33;13.55;;;;;;;-144.47;100.00;53165.94;5030349;28;20026;-67
2023/01/25 03:37:20;;;;;;;39.78;14.80;;;;;;;-144.47;100.00;53154.03;5028962;28;20498;-66
2023/01/25 03:39:46;;;;;;;41.03;13.57;;;;;;;-144.47;100.00;53148.06;5029017;28;20025;-64
2023/01/25 03:42:12;;;;;;;40.38;13.80;;;;;;;-144.47;100.00;53142.09;5030272;28;20025;-65
2023/01/25 03:44:37;;;;;;;38.65;14.57;;;;;;;-144.47;100.00;53130.19;5028324;28;20037;-64
2023/01/25 03:47:02;;;;;;;41.03;14.25;;;;;;;-144.47;100.00;53122.25;5028105;28;20034;-65
2023/01/25 03:49:28;;;;;;;34.88;13.15;;;;;;;-144.47;100.00;53150.06;5029464;28;20044;-64
2023/01/25 03:51:53;;;;;;;37.42;13.77;;;;;;;-144.47;100.00;53132.19;5029304;28;20040;-66
2023/01/25 03:54:18;;;;;;;34.97;13.00;;;;;;;-144.47;100.00;53134.16;5026395;28;20415;-63
2023/01/25 03:56:44;;;;;;;27.58;11.73;;;;;;;-144.47;99.62;53138.13;5025125;28;20033;-64
2023/01/25 03:59:11;;;;;;;32.00;12.68;;;;;;;-144.47;99.30;53124.22;5029617;28;20017;-65
2023/01/25 04:01:36;;;;;;;28.45;12.10;;;;;;;-144.47;99.35;53118.28;5030141;28;20025;-63
2023/01/25 04:04:01;;;;;;;37.65;13.63;;;;;;;-144.47;99.35;53134.16;5029163;28;20112;-65
2023/01/25 04:06:27;;;;;;;31.85;11.23;;;;;;;-144.47;99.16;53112.31;5028858;28;20059;-65
2023/01/25 04:08:52;;;;;;;34.25;12.20;;;;;;;-144.47;99.35;53122.25;5029897;28;20403;-66
2023/01/25 04:11:17;;;;;;;31.30;11.90;;;;;;;-144.47;99.14;53110.31;5028974;28;20384;-63
2023/01/25 04:13:43;;;;;;;35.22;11.75;;;;;;;-144.47;98.98;53130.19;5030119;28;20542;-66
2023/01/25 04:16:11;;;;;;;38.20;13.10;;;;;;;-144.47;98.78;53140.13;5029879;28;20527;-67
2023/01/25 04:18:37;;;;;;;30.80;11.55;;;;;;;-144.47;98.63;53114.31;5028458;28;20045;-63
2023/01/25 04:21:02;;;;;;;31.67;11.10;;;;;;;-144.47;98.75;53181.84;5039094;28;20029;-65
2023/01/25 04:23:28;;;;;;;38.45;12.38;;;;;;;-144.47;98.88;53160.00;5029171;28;20044;-64
2023/01/25 04:25:54;;;;;;;36.78;12.40;;;;;;;-144.47;98.86;53140.13;5029660;28;20033;-68
2023/01/25 04:28:20;;;;;;;43.58;14.15;;;;;;;-144.47;99.20;53136.16;5028346;28;20025;-65
2023/01/25 04:30:46;;;;;;;38.88;12.88;;;;;;;-144.47;99.08;53144.09;5027989;28;20091;-65
2023/01/25 04:33:12;;;;;;;36.28;12.00;;;;;;;-144.47;99.10;53140.13;5027480;28;20048;-66
2023/01/25 04:35:37;;;;;;;38.92;12.85;;;;;;;-144.47;99.05;53144.09;5027284;28;20181;-61
2023/01/25 04:38:02;;;;;;;41.92;13.00;;;;;;;-144.47;99.28;53158.00;5028575;28;20033;-67
2023/01/25 04:40:28;;;;;;;37.08;14.05;;;;;;;-144.47;99.18;53134.16;5029282;28;20029;-66
2023/01/25 04:42:53;;;;;;;32.05;11.90;;;;;;;-144.47;98.80;53108.34;5027788;28;20076;-66
2023/01/25 04:45:19;;;;;;;33.28;12.43;;;;;;;-144.47;98.84;53138.13;5028553;28;20076;-67
2023/01/25 04:47:44;;;;;;;33.80;12.15;;;;;;;-144.47;98.93;53106.34;5027908;28;20018;-60
2023/01/25 04:50:10;;;;;;;33.38;11.82;;;;;;;-144.47;99.18;53128.22;5028369;28;20068;-65
2023/01/25 04:52:35;;;;;;;43.90;13.32;;;;;;;-144.47;99.15;53138.13;5034767;28;20041;-65
2023/01/25 04:55:00;;;;;;;32.92;12.38;;;;;;;-144.47;98.93;53142.09;5031812;28;20037;-65
2023/01/25 04:57:26;;;;;;;30.33;11.63;;;;;;;-144.47;99.06;53150.06;5034350;28;20078;-62
2023/01/25 04:59:51;;;;;;;37.90;14.35;;;;;;;-144.47;99.01;53134.16;5034724;28;20025;-67
2023/01/25 05:02:16;;;;;;;33.75;12.52;;;;;;;-144.47;99.38;53130.19;5035157;28;20051;-66
2023/01/25 05:04:42;;;;;;;31.33;12.45;;;;;;;-144.47;99.38;53106.34;5035831;28;20021;-65
2023/01/25 05:07:07;;;;;;;41.63;13.65;;;;;;;-144.47;99.22;53122.25;5035587;28;20472;-67
2023/01/25 05:09:33;;;;;;;41.03;13.23;;;;;;;-144.47;99.04;53154.03;5040079;28;20519;-66
2023/01/25 05:11:59;;;;;;;41.67;13.85;;;;;;;-144.47;98.92;53138.13;5035894;28;20104;-67
2023/01/25 05:14:24;;;;;;;43.38;14.48;;;;;;;-144.47;98.73;53126.22;5034237;28;20535;-63
2023/01/25 05:16:49;;;;;;;32.97;11.05;;;;;;;-144.47;98.75;53160.00;5035255;28;20029;-66
2023/01/25 05:19:15;;;;;;;29.48;12.18;;;;;;;-144.47;98.57;53108.34;5044575;28;20658;-63
2023/01/25 05:21:58;;;;;;;38.75;13.32;;;;;;;-144.47;98.78;53154.03;5034982;28;20037;-67
2023/01/25 05:24:28;;;;;;;34.83;12.32;;;;;;;-144.47;98.63;53158.00;5035436;28;20035;-67
2023/01/25 05:27:02;;;;;;;35.92;13.00;;;;;;;-144.47;98.97;53114.31;5034557;28;20056;-66
2023/01/25 05:29:36;;;;;;;31.40;12.68;;;;;;;-144.47;98.45;53165.94;5035472;28;20053;-66
2023/01/25 05:32:06;;;;;;;41.20;13.77;;;;;;;-144.47;99.23;53146.09;5034442;28;20080;-66
2023/01/25 05:34:32;;;;;;;32.10;12.52;;;;;;;-144.47;99.08;53122.25;5035230;28;20108;-66
2023/01/25 05:36:58;;;;;;;35.85;13.23;;;;;;;-144.47;100.00;53152.03;5033993;28;20108;-66
2023/01/25 05:39:24;;;;;;;35.22;14.45;;;;;;;-144.47;100.00;53148.06;5035689;28;20032;-67
2023/01/25 05:41:50;;;;;;;33.53;12.32;;;;;;;-144.47;100.00;53163.97;5037566;28;20029;-67
2023/01/25 05:44:15;;;;;;;36.30;12.85;;;;;;;-144.47;100.00;53163.97;5034557;28;20052;-67
2023/01/25 05:46:40;;;;;;;37.10;14.65;;;;;;;-144.47;100.00;53161.97;5034552;28;20052;-63
2023/01/25 05:49:06;;;;;;;36.85;13.18;;;;;;;-144.47;100.00;53144.09;5034651;28;20025;-66
2023/01/25 05:51:31;;;;;;;30.35;12.13;;;;;;;-144.47;100.00;53142.09;5031182;28;20029;-68
2023/01/25 05:53:57;;;;;;;43.67;13.93;;;;;;;-144.47;100.00;53136.16;5034207;28;20040;-67
2023/01/25 05:56:28;;;;;;;40.03;13.90;;;;;;;-144.47;100.00;53148.06;5033492;28;20041;-69
2023/01/25 05:58:55;;;;;;;41.55;14.68;;;;;;;-144.47;100.00;53171.91;5036238;28;20022;-66
2023/01/25 06:01:21;;;;;;;38.25;13.73;;;;;;;-144.47;100.00;53146.09;5035002;28;20079;-65
2023/01/25 06:03:47;;;;;;;48.35;14.30;;;;;;;-144.47;100.00;53152.03;5030485;28;20045;-68
2023/01/25 06:06:12;;;;;;;45.95;14.85;;;;;;;-144.47;100.00;53158.00;5031278;28;20026;-65
2023/01/25 06:08:38;;;;;;;45.17;14.50;;;;;;;-144.47;100.00;53132.19;5032206;28;20043;-67
2023/01/25 06:11:07;;;;;;;40.40;14.50;;;;;;;-144.47;100.00;53134.16;5032595;28;20026;-65
2023/01/25 06:13:33;;;;;;;45.88;14.43;;;;;;;-144.47;100.00;53146.09;5029980;28;20029;-66
2023/01/25 06:15:59;;;;;;;32.95;13.02;;;;;;;-144.47;100.00;53148.06;5032353;28;20402;-64
2023/01/25 06:18:25;;;;;;;43.65;15.38;;;;;;;-144.47;100.00;53158.00;5030226;28;20155;-67
2023/01/25 06:20:50;;;;;;;33.67;14.70;;;;;;;-144.47;100.00;53144.09;5030878;28;20638;-65
2023/01/25 06:23:16;;;;;;;40.20;14.82;;;;;;;-144.47;100.00;53130.19;5031679;28;20033;-66
2023/01/25 06:25:43;;;;;;;38.88;13.90;;;;;;;-144.47;100.00;53148.06;5031651;28;20059;-66
2023/01/25 06:28:08;;;;;;;48.17;15.90;;;;;;;-144.47;100.00;53158.00;5029082;28;20029;-63
2023/01/25 06:30:34;;;;;;;36.08;13.55;;;;;;;-144.47;100.00;53158.00;5029273;28;20506;-66
2023/01/25 06:33:00;;;;;;;38.67;13.60;;;;;;;-144.47;100.00;53138.13;5030316;28;20025;-67
2023/01/25 06:35:27;;;;;;;35.80;13.10;;;;;;;-144.47;100.00;53152.03;5029199;28;20029;-67
2023/01/25 06:37:56;;;;;;;37.63;13.60;;;;;;;-144.47;100.00;53152.03;5030925;28;20017;-66
2023/01/25 06:40:21;;;;;;;37.45;14.60;;;;;;;-144.47;100.00;53160.00;5031381;28;20032;-64
2023/01/25 06:42:47;;;;;;;30.30;12.50;;;;;;;-144.47;100.00;53120.25;5031108;28;20033;-66
2023/01/25 06:45:12;;;;;;;28.30;11.07;;;;;;;-144.47;100.00;53146.09;5031540;28;20044;-66
2023/01/25 06:47:39;;;;;;;36.22;11.98;;;;;;;-144.47;100.00;53146.09;5032072;28;20477;-66
2023/01/25 06:50:05;;;;;;;34.65;13.40;;;;;;;-144.47;99.85;53152.03;5031039;28;20030;-65
2023/01/25 06:52:30;;;;;;;31.13;12.73;;;;;;;-144.47;100.00;53146.09;5031312;28;20463;-66
2023/01/25 06:54:56;;;;;;;33.72;11.23;;;;;;;-144.47;100.00;53130.19;5031733;28;20025;-66
2023/01/25 06:57:22;;;;;;;40.75;13.30;;;;;;;-144.47;100.00;53128.22;5029010;28;20380;-67
2023/01/25 06:59:47;;;;;;;38.03;13.60;;;;;;;-144.47;100.00;53130.19;5030780;28;20071;-67
2023/01/25 07:02:15;;;;;;;34.33;12.45;;;;;;;-144.47;96.91;53126.22;5030725;28;20025;-66
2023/01/25 07:04:41;;;;;;;34.30;13.20;;;;;;;-144.47;97.94;53150.06;5030504;28;20056;-63
2023/01/25 07:07:09;;;;;;;37.58;13.70;;;;;;;-144.47;100.00;53124.22;5030540;28;20017;-68
2023/01/25 07:09:35;;;;;;;38.03;14.20;;;;;;;-144.47;99.50;53156.00;5034826;28;20028;-66
2023/01/25 07:12:01;;;;;;;36.42;11.60;;;;;;;-144.47;99.00;53120.25;5013292;28;20380;-64
2023/01/25 07:14:26;;;;;;;31.35;11.30;;;;;;;-144.47;98.29;53126.22;5036667;28;20052;-67
2023/01/25 07:16:52;;;;;;;30.58;10.60;;;;;;;-144.47;98.29;53134.16;5037502;28;20029;-65
2023/01/25 07:19:18;;;;;;;29.73;12.13;;;;;;;-144.47;98.47;53163.97;5029972;28;20017;-67
2023/01/25 07:21:43;;;;;;;33.67;12.82;;;;;;;-144.47;98.28;53126.22;5029967;28;20539;-66
2023/01/25 07:24:14;;;;;;;29.85;12.18;;;;;;;-144.47;98.37;53146.09;5030120;28;20681;-64
2023/01/25 07:26:40;;;;;;;28.88;11.13;;;;;;;-144.47;98.17;53128.22;5029168;28;20052;-65
2023/01/25 07:29:05;;;;;;;29.23;10.32;;;;;;;-144.47;98.26;53148.06;5029471;28;20503;-66
2023/01/25 07:31:30;;;;;;;25.00;11.00;;;;;;;-144.47;98.54;53138.13;5029926;28;20025;-65
2023/01/25 07:33:57;;;;;;;29.63;11.98;;;;;;;-144.47;98.37;53154.03;5030528;28;20021;-66
2023/01/25 07:36:23;;;;;;;32.30;12.32;;;;;;;-144.47;99.55;53134.16;5029589;28;20399;-66
2023/01/25 07:38:55;;;;;;;27.33;11.15;;;;;;;-144.47;98.18;53128.22;5029522;28;20025;-61
2023/01/25 07:41:22;;;;;;;26.90;10.80;;;;;;;-144.47;97.64;53161.97;5030459;28;20166;-66
2023/01/25 07:43:47;;;;;;;24.23;11.13;;;;;;;-144.47;97.43;53118.28;5034566;28;20026;-66
2023/01/25 07:46:14;;;;;;;33.55;11.88;;;;;;;-144.47;97.93;53132.19;5034807;28;20032;-65
2023/01/25 07:48:44;;;;;;;29.52;10.98;;;;;;;-144.47;97.96;53142.09;5028797;28;20021;-64
2023/01/25 07:51:21;;;;;;;25.85;11.07;;;;;;;-144.47;97.71;53132.19;5025652;28;20022;-67
2023/01/25 07:53:50;;;;;;;25.55;11.30;;;;;;;-144.47;97.61;53146.09;5029361;28;20036;-67
2023/01/25 07:56:16;;;;;;;26.98;9.82;;;;;;;-144.47;98.02;53118.28;5029270;28;20455;-67
2023/01/25 07:58:41;;;;;;;28.50;11.05;;;;;;;-144.47;97.39;53124.22;5029815;28;20044;-67
2023/01/25 08:01:07;;;;;;;30.35;10.38;;;;;;;-144.47;97.74;53161.97;5033065;28;20016;-68
2023/01/25 08:03:33;;;;;;;28.35;10.02;;;;;;;-144.47;97.68;53130.19;5033981;28;20026;-67
2023/01/25 08:05:58;;;;;;;29.92;11.40;;;;;;;-144.47;97.35;53148.06;5029626;28;20057;-65
2023/01/25 08:08:23;;;;;;;30.35;12.27;;;;;;;-144.47;96.84;53144.09;5032109;28;20048;-64
2023/01/25 08:10:49;;;;;;;34.97;11.68;;;;;;;-144.47;97.10;53144.09;5029895;28;20056;-66
2023/01/25 08:13:14;;;;;;;31.20;11.30;;;;;;;-144.47;97.41;53128.22;5028769;28;20030;-65
2023/01/25 08:15:39;;;;;;;28.48;11.68;;;;;;;-144.47;96.91;53156.00;5029191;28;20029;-66
2023/01/25 08:18:05;;;;;;;36.42;11.77;;;;;;;-144.47;97.58;53120.25;5029679;28;20029;-65
2023/01/25 08:20:30;;;;;;;31.95;12.93;;;;;;;-144.47;97.55;53124.22;5028089;28;20510;-65
2023/01/25 08:22:55;;;;;;;32.03;13.23;;;;;;;-144.47;97.33;53124.22;5029572;28;20770;-67
2023/01/25 08:25:21;;;;;;;45.00;16.05;;;;;;;-144.47;97.62;53138.13;5029384;28;20098;-65
2023/01/25 08:27:46;;;;;;;63.78;26.35;;;;;;;-144.47;97.59;53144.09;5029005;28;20036;-67
2023/01/25 08:30:12;;;;;;;33.58;13.13;;;;;;;-144.47;97.90;53106.34;5027851;28;20056;-66
2023/01/25 08:32:38;;;;;;;29.95;12.52;;;;;;;-144.47;97.66;53134.16;5029966;28;20036;-66
2023/01/25 08:35:04;;;;;;;36.45;13.25;;;;;;;-144.47;97.66;53130.19;5028964;28;20487;-65
2023/01/25 08:37:29;;;;;;;40.88;15.35;;;;;;;-144.47;97.58;53106.34;5034345;28;20020;-67
2023/01/25 08:39:58;;;;;;;34.13;12.73;;;;;;;-144.47;97.19;53128.22;5034277;28;20092;-66
2023/01/25 08:42:24;;;;;;;28.23;11.20;;;;;;;-144.47;97.36;53126.22;5029510;28;20017;-66
2023/01/25 08:44:49;;;;;;;33.67;12.80;;;;;;;-144.47;97.29;53130.19;5031444;28;20033;-64
2023/01/25 08:47:15;;;;;;;34.60;12.13;;;;;;;-144.47;97.08;53114.31;5029639;28;20384;-66
2023/01/25 08:49:40;;;;;;;31.75;12.43;;;;;;;-144.47;97.14;53126.22;5030073;28;20017;-63
2023/01/25 08:52:06;;;;;;;28.38;11.20;;;;;;;-144.47;97.06;53124.22;5028816;28;20029;-67
2023/01/25 08:54:31;;;;;;;29.45;11.63;;;;;;;-144.47;97.21;53138.13;5030272;28;20200;-66
2023/01/25 08:56:57;;;;;;;26.80;11.38;;;;;;;-144.47;97.42;53100.41;5026961;28;20041;-66
2023/01/25 08:59:22;;;;;;;33.45;11.05;;;;;;;-144.47;97.04;53136.16;5028585;28;20021;-61
2023/01/25 09:01:48;;;;;;;32.55;11.93;;;;;;;-144.47;96.61;53140.13;5017137;28;20116;-66
2023/01/25 09:04:13;;;;;;;35.67;12.48;;;;;;;-144.47;96.99;53138.13;5042622;28;20021;-65
2023/01/25 09:06:39;;;;;;;30.92;13.30;;;;;;;-144.47;96.94;53116.28;5030030;28;20021;-66
2023/01/25 09:09:05;;;;;;;32.17;13.13;;;;;;;-144.47;97.18;53118.28;5030472;28;20517;-65
2023/01/25 09:11:32;;;;;;;30.98;12.95;;;;;;;-144.47;97.04;53118.28;5029108;28;20053;-63
2023/01/25 09:13:58;;;;;;;30.90;13.05;;;;;;;-144.47;96.77;53094.44;5029233;28;20018;-67
2023/01/25 09:16:30;;;;;;;32.88;12.38;;;;;;;-144.47;96.39;53142.09;5028874;28;20028;-66
2023/01/25 09:18:57;;;;;;;35.50;12.25;;;;;;;-144.47;96.84;53163.97;5026910;28;20109;-65
2023/01/25 09:21:23;;;;;;;27.20;11.63;;;;;;;-144.47;96.92;53118.28;5029242;28;20029;-65
2023/01/25 09:23:50;;;;;;;26.88;11.80;;;;;;;-144.47;97.04;53126.22;5028711;28;20049;-65
2023/01/25 09:26:16;;;;;;;32.67;12.95;;;;;;;-144.47;96.90;53142.09;5027841;28;20065;-66
2023/01/25 09:28:42;;;;;;;24.95;10.63;;;;;;;-144.47;96.80;53090.47;5029462;28;20029;-63
2023/01/25 09:31:10;;;;;;;25.35;11.18;;;;;;;-144.47;96.44;53124.22;5029228;28;20028;-65
2023/01/25 09:33:37;;;;;;;27.30;11.30;;;;;;;-144.47;96.25;53114.31;5028588;28;20676;-66
2023/01/25 09:36:03;;;;;;;32.88;11.52;;;;;;;-144.47;95.90;53146.09;5022097;28;20453;-65
2023/01/25 09:38:28;;;;;;;25.70;10.13;;;;;;;-144.47;95.50;53138.13;5026500;28;20031;-66
2023/01/25 09:41:03;;;;;;;28.83;11.25;;;;;;;-144.47;95.15;53132.19;5039881;28;20693;-65
2023/01/25 09:43:38;;;;;;;20.67;9.80;;;;;;;-144.47;95.13;53110.31;5032380;28;20044;-66
2023/01/25 09:46:30;;;;;;;27.30;10.15;;;;;;;-144.47;94.83;53140.13;5032783;28;20094;-63
2023/01/25 09:49:10;;;;;;;22.15;10.07;;;;;;;-144.47;93.83;53110.31;5031212;28;20056;-67
2023/01/25 09:52:11;;;;;;;23.55;8.82;;;;;;;-144.47;93.83;53142.09;5032515;28;20041;-69
2023/01/25 09:54:39;;;;;;;25.65;10.60;;;;;;;-144.47;95.58;53148.06;5024028;28;20044;-63
2023/01/25 09:57:34;;;;;;;24.20;10.85;;;;;;;-144.47;93.77;53148.06;5031291;28;20029;-65
2023/01/25 10:00:09;;;;;;;28.63;10.65;;;;;;;-144.47;93.30;53118.28;5037140;28;20103;-62
2023/01/25 10:02:58;;;;;;;25.15;10.25;;;;;;;-144.47;93.72;53146.09;5029618;28;20545;-67
2023/01/25 10:05:27;;;;;;;;;;;;;;;-144.47;93.41;53160.00;5030845;28;20543;-64
2023/01/25 10:08:11;;;;;;;28.50;9.52;;;;;;;-144.47;93.03;53112.31;5033129;28;19913;-63
2023/01/25 10:10:42;;;;;;;31.05;10.50;;;;;;;-144.47;93.78;53122.25;5029936;28;20075;-64
2023/01/25 10:13:12;;;;;;;26.52;9.23;;;;;;;-144.47;93.46;53148.06;5022429;28;20466;-63
2023/01/25 10:15:49;;;;;;;24.88;9.65;;;;;;;-144.47;92.80;53108.34;5032256;28;20029;-65
2023/01/25 10:18:14;;;;;;;23.38;9.35;;;;;;;-144.47;92.41;53122.25;5031595;28;20032;-66
2023/01/25 10:20:44;;;;;;;24.13;8.30;;;;;;;-144.47;91.17;53136.16;5039276;28;20017;-63
2023/01/25 10:23:28;;;;;;;62.72;26.65;;;;;;;-144.47;91.09;53104.38;5040438;28;20053;-65
2023/01/25 10:25:58;;;;;;;31.13;11.52;;;;;;;-144.47;89.68;53124.22;5019552;28;20038;-63
2023/01/25 10:28:36;;;;;;;23.85;10.52;;;;;;;-144.47;90.12;53114.31;5031107;28;20104;-62
2023/01/25 10:31:05;;;;;;;21.90;8.38;;;;;;;-144.47;89.53;53122.25;5031492;28;20025;-65
2023/01/25 10:33:38;;;;;;;25.48;9.55;;;;;;;-144.47;88.89;53124.22;5030161;28;20550;-66
2023/01/25 10:36:04;;;;;;;26.17;9.75;;;;;;;-144.47;88.91;53114.31;5023376;28;20030;-65
2023/01/25 10:38:41;;;;;;;26.60;10.05;;;;;;;-144.47;88.52;53120.25;5031618;28;20406;-66
2023/01/25 10:41:12;;;;;;;26.15;9.20;;;;;;;-144.47;88.39;53110.31;5037169;28;20100;-65
2023/01/25 10:43:38;;;;;;;26.98;10.27;;;;;;;-144.47;88.59;53116.28;5030497;28;20033;-64
2023/01/25 10:46:20;;;;;;;34.78;8.82;;;;;;;-144.47;87.74;53130.19;5030368;28;20455;-66
2023/01/25 10:48:46;;;;;;;23.63;9.95;;;;;;;-144.47;87.66;53138.13;5030429;28;20033;-65
2023/01/25 10:51:28;;;;;;;25.85;10.68;;;;;;;-144.47;87.63;53124.22;5030776;28;20029;-63
2023/01/25 10:54:14;;;;;;;23.80;9.95;;;;;;;-144.47;87.43;53090.47;5038157;28;20025;-65
2023/01/25 10:56:41;;;;;;;23.20;8.85;;;;;;;-144.47;87.67;53104.38;5030679;28;20028;-66
2023/01/25 10:59:06;;;;;;;22.30;8.18;;;;;;;-144.47;86.20;53096.41;5030349;28;20025;-62
2023/01/25 11:01:33;;;;;;;21.77;8.98;;;;;;;-144.47;86.25;53112.31;5023987;28;20720;-66
2023/01/25 11:04:00;;;;;;;27.30;8.75;;;;;;;-144.47;87.69;53122.25;5043529;28;20025;-66